createdAt,value
2023-02-24T00:00:56.809Z,95.00
2023-02-24T00:01:56.829Z,95.10
2023-02-24T00:02:56.794Z,94.85
2023-02-24T00:03:56.815Z,94.95
2023-02-24T00:04:56.771Z,94.85
2023-02-24T00:05:56.748Z,94.95
2023-02-24T00:06:56.747Z,94.95
2023-02-24T00:07:56.732Z,94.95
2023-02-24T00:08:56.721Z,94.85
2023-02-24T00:09:56.728Z,94.85
2023-02-24T00:10:56.693Z,95.06
2023-02-24T00:11:56.704Z,94.85
2023-02-24T00:12:56.670Z,94.85
2023-02-24T00:13:56.666Z,94.95
2023-02-24T00:14:56.659Z,94.74
2023-02-24T00:15:56.680Z,95.37
2023-02-24T00:16:56.736Z,95.16
2023-02-24T00:17:56.610Z,95.26
2023-02-24T00:18:56.608Z,95.37
2023-02-24T00:19:56.602Z,95.37
2023-02-24T00:20:56.590Z,94.74
2023-02-24T00:21:56.571Z,94.91
2023-02-24T00:22:56.559Z,94.54
2023-02-24T00:23:56.543Z,94.95
2023-02-24T00:24:56.547Z,94.95
2023-02-24T00:25:56.524Z,95.12
2023-02-24T00:26:56.529Z,94.85
2023-02-24T00:27:56.518Z,94.74
2023-02-24T00:28:56.491Z,94.91
2023-02-24T00:29:56.488Z,94.54
2023-02-24T00:30:56.535Z,94.54
2023-02-24T00:31:56.753Z,94.54
2023-02-24T00:32:56.512Z,94.81
2023-02-24T00:33:56.434Z,94.95
2023-02-24T00:34:56.436Z,94.85
2023-02-24T00:35:56.414Z,95.01
2023-02-24T00:36:56.419Z,94.74
2023-02-24T00:37:56.392Z,94.95
2023-02-24T00:38:56.394Z,94.95
2023-02-24T00:39:56.371Z,94.95
2023-02-24T00:40:56.372Z,94.74
2023-02-24T00:41:56.355Z,94.74
2023-02-24T00:42:56.348Z,94.54
2023-02-24T00:43:56.347Z,93.91
2023-02-24T00:44:56.355Z,94.12
2023-02-24T00:45:56.355Z,93.91
2023-02-24T00:46:56.305Z,93.56
2023-02-24T00:47:56.283Z,94.02
2023-02-24T00:48:56.275Z,93.81
2023-02-24T00:49:56.285Z,93.71
2023-02-24T00:50:56.262Z,94.02
2023-02-24T00:51:56.237Z,93.91
2023-02-24T00:52:56.233Z,93.81
2023-02-24T00:53:56.237Z,93.71
2023-02-24T00:54:56.208Z,93.81
2023-02-24T00:55:56.203Z,93.71
2023-02-24T00:56:56.186Z,94.12
2023-02-24T00:57:56.190Z,93.50
2023-02-24T00:58:56.164Z,93.29
2023-02-24T00:59:56.174Z,92.98
2023-02-24T01:00:56.148Z,93.13
2023-02-24T01:01:56.162Z,93.13
2023-02-24T01:02:56.128Z,93.13
2023-02-24T01:03:56.134Z,92.61
2023-02-24T01:04:56.104Z,92.76
2023-02-24T01:05:56.094Z,92.72
2023-02-24T01:06:56.071Z,92.97
2023-02-24T01:07:56.057Z,93.13
2023-02-24T01:08:56.053Z,93.18
2023-02-24T01:09:56.059Z,93.07
2023-02-24T01:10:56.049Z,92.86
2023-02-24T01:11:56.095Z,92.86
2023-02-24T01:12:56.004Z,92.86
2023-02-24T01:13:56.005Z,92.97
2023-02-24T01:14:55.979Z,92.55
2023-02-24T01:15:56.095Z,92.55
2023-02-24T01:16:55.979Z,92.86
2023-02-24T01:17:55.949Z,92.86
2023-02-24T01:18:55.940Z,92.90
2023-02-24T01:19:55.925Z,92.90
2023-02-24T01:20:55.918Z,92.69
2023-02-24T01:21:55.909Z,92.59
2023-02-24T01:22:55.914Z,93.01
2023-02-24T01:23:55.888Z,93.01
2023-02-24T01:24:55.866Z,92.69
2023-02-24T01:25:55.859Z,92.43
2023-02-24T01:26:55.845Z,93.05
2023-02-24T01:27:55.861Z,93.37
2023-02-24T01:28:55.822Z,93.26
2023-02-24T01:29:55.813Z,93.05
2023-02-24T01:30:55.976Z,93.47
2023-02-24T01:31:56.024Z,93.16
2023-02-24T01:32:55.943Z,93.26
2023-02-24T01:33:55.776Z,93.22
2023-02-24T01:34:55.758Z,93.26
2023-02-24T01:35:55.758Z,93.16
2023-02-24T01:36:55.741Z,93.26
2023-02-24T01:37:55.730Z,93.16
2023-02-24T01:38:55.749Z,93.26
2023-02-24T01:39:55.719Z,93.16
2023-02-24T01:40:55.695Z,93.37
2023-02-24T01:41:55.690Z,93.37
2023-02-24T01:42:55.671Z,93.30
2023-02-24T01:43:55.664Z,93.26
2023-02-24T01:44:55.672Z,93.16
2023-02-24T01:45:55.641Z,93.37
2023-02-24T01:46:55.701Z,93.20
2023-02-24T01:47:55.642Z,93.30
2023-02-24T01:48:55.606Z,93.30
2023-02-24T01:49:55.603Z,93.41
2023-02-24T01:50:55.609Z,93.20
2023-02-24T01:51:55.578Z,93.30
2023-02-24T01:52:55.560Z,93.62
2023-02-24T01:53:55.557Z,93.41
2023-02-24T01:54:55.554Z,93.51
2023-02-24T01:55:55.537Z,93.41
2023-02-24T01:56:55.535Z,93.35
2023-02-24T01:57:55.510Z,93.35
2023-02-24T01:58:55.494Z,93.24
2023-02-24T01:59:55.501Z,93.35
2023-02-24T02:00:55.478Z,93.24
2023-02-24T02:01:55.618Z,93.24
2023-02-24T02:02:55.467Z,93.87
2023-02-24T02:03:55.473Z,93.87
2023-02-24T02:04:55.430Z,93.87
2023-02-24T02:05:55.432Z,93.87
2023-02-24T02:06:55.429Z,93.97
2023-02-24T02:07:55.403Z,93.97
2023-02-24T02:08:55.387Z,93.97
2023-02-24T02:09:55.396Z,93.87
2023-02-24T02:10:55.371Z,93.87
2023-02-24T02:11:55.357Z,94.07
2023-02-24T02:12:55.357Z,93.97
2023-02-24T02:13:55.434Z,94.01
2023-02-24T02:14:55.323Z,94.18
2023-02-24T02:15:55.334Z,94.22
2023-02-24T02:16:55.313Z,93.91
2023-02-24T02:17:55.298Z,94.22
2023-02-24T02:18:55.277Z,94.64
2023-02-24T02:19:55.290Z,95.21
2023-02-24T02:20:55.253Z,95.21
2023-02-24T02:21:55.257Z,95.32
2023-02-24T02:22:55.256Z,95.05
2023-02-24T02:23:55.231Z,95.21
2023-02-24T02:24:55.221Z,94.64
2023-02-24T02:25:55.205Z,93.97
2023-02-24T02:26:55.196Z,94.43
2023-02-24T02:27:55.181Z,94.43
2023-02-24T02:28:55.178Z,94.12
2023-02-24T02:29:55.159Z,94.16
2023-02-24T02:30:55.169Z,94.22
2023-02-24T02:31:55.420Z,94.32
2023-02-24T02:32:55.248Z,94.43
2023-02-24T02:33:55.118Z,94.43
2023-02-24T02:34:55.102Z,94.53
2023-02-24T02:35:55.112Z,94.74
2023-02-24T02:36:55.089Z,94.64
2023-02-24T02:37:55.094Z,94.32
2023-02-24T02:38:55.061Z,94.22
2023-02-24T02:39:55.048Z,95.09
2023-02-24T02:40:55.037Z,95.15
2023-02-24T02:41:55.038Z,94.99
2023-02-24T02:42:55.032Z,95.20
2023-02-24T02:43:55.008Z,94.95
2023-02-24T02:44:54.993Z,95.05
2023-02-24T02:45:55.005Z,94.53
2023-02-24T02:46:54.975Z,95.15
2023-02-24T02:47:54.967Z,95.15
2023-02-24T02:48:54.950Z,94.95
2023-02-24T02:49:54.951Z,94.95
2023-02-24T02:50:54.988Z,94.84
2023-02-24T02:51:54.947Z,94.26
2023-02-24T02:52:54.897Z,94.43
2023-02-24T02:53:54.913Z,94.47
2023-02-24T02:54:54.874Z,94.53
2023-02-24T02:55:54.864Z,94.37
2023-02-24T02:56:54.856Z,94.12
2023-02-24T02:57:54.863Z,94.32
2023-02-24T02:58:54.846Z,94.32
2023-02-24T02:59:54.822Z,94.22
2023-02-24T03:00:54.834Z,93.74
2023-02-24T03:01:54.799Z,94.43
2023-02-24T03:02:54.790Z,94.26
2023-02-24T03:03:54.779Z,94.47
2023-02-24T03:05:02.362Z,94.06
2023-02-24T03:05:54.753Z,94.37
2023-02-24T03:06:54.751Z,94.26
2023-02-24T03:07:54.758Z,94.57
2023-02-24T03:08:54.717Z,94.37
2023-02-24T03:09:54.727Z,94.89
2023-02-24T03:10:54.698Z,94.78
2023-02-24T03:11:54.704Z,95.09
2023-02-24T03:12:54.686Z,95.09
2023-02-24T03:13:54.697Z,95.30
2023-02-24T03:14:54.649Z,95.09
2023-02-24T03:15:54.665Z,94.93
2023-02-24T03:16:54.682Z,94.99
2023-02-24T03:17:54.646Z,95.03
2023-02-24T03:18:54.608Z,95.30
2023-02-24T03:19:54.596Z,95.30
2023-02-24T03:20:54.589Z,95.35
2023-02-24T03:21:54.578Z,95.30
2023-02-24T03:22:54.581Z,95.30
2023-02-24T03:23:54.622Z,95.09
2023-02-24T03:24:54.545Z,95.40
2023-02-24T03:25:54.557Z,95.30
2023-02-24T03:26:54.519Z,94.99
2023-02-24T03:27:54.538Z,95.20
2023-02-24T03:28:54.498Z,95.51
2023-02-24T03:29:54.508Z,95.30
2023-02-24T03:30:54.597Z,94.99
2023-02-24T03:31:54.612Z,94.93
2023-02-24T03:32:54.725Z,95.35
2023-02-24T03:33:54.454Z,95.09
2023-02-24T03:34:54.443Z,95.20
2023-02-24T03:35:54.427Z,95.14
2023-02-24T03:36:54.452Z,94.82
2023-02-24T03:37:54.409Z,95.03
2023-02-24T03:38:54.409Z,95.35
2023-02-24T03:39:54.410Z,95.35
2023-02-24T03:40:54.370Z,95.03
2023-02-24T03:41:54.361Z,95.03
2023-02-24T03:42:54.369Z,95.03
2023-02-24T03:43:54.342Z,95.14
2023-02-24T03:44:54.328Z,95.03
2023-02-24T03:45:54.355Z,95.35
2023-02-24T03:46:54.308Z,95.35
2023-02-24T03:47:54.357Z,95.25
2023-02-24T03:48:54.290Z,94.76
2023-02-24T03:49:54.275Z,95.45
2023-02-24T03:50:54.262Z,95.45
2023-02-24T03:51:54.263Z,94.93
2023-02-24T03:52:54.232Z,94.98
2023-02-24T03:53:54.221Z,94.98
2023-02-24T03:54:54.246Z,95.45
2023-02-24T03:55:54.218Z,95.35
2023-02-24T03:56:54.190Z,95.18
2023-02-24T03:57:54.181Z,95.39
2023-02-24T03:58:54.187Z,95.50
2023-02-24T03:59:54.155Z,95.45
2023-02-24T04:00:54.143Z,95.39
2023-02-24T04:01:54.137Z,94.93
2023-02-24T04:02:54.124Z,95.50
2023-02-24T04:03:54.140Z,94.98
2023-02-24T04:04:54.141Z,95.50
2023-02-24T04:05:54.108Z,95.39
2023-02-24T04:06:56.192Z,94.76
2023-02-24T04:07:54.071Z,94.56
2023-02-24T04:08:54.063Z,94.45
2023-02-24T04:09:54.055Z,94.35
2023-02-24T04:10:54.047Z,94.04
2023-02-24T04:11:54.046Z,94.35
2023-02-24T04:12:54.115Z,94.35
2023-02-24T04:13:54.001Z,94.35
2023-02-24T04:14:54.017Z,94.20
2023-02-24T04:15:54.025Z,94.35
2023-02-24T04:16:53.973Z,94.56
2023-02-24T04:17:53.966Z,94.51
2023-02-24T04:18:53.947Z,94.35
2023-02-24T04:19:53.972Z,94.56
2023-02-24T04:20:53.927Z,94.04
2023-02-24T04:21:53.922Z,94.45
2023-02-24T04:22:53.903Z,94.56
2023-02-24T04:23:53.891Z,94.66
2023-02-24T04:24:53.895Z,94.35
2023-02-24T04:25:53.918Z,94.56
2023-02-24T04:26:53.870Z,94.56
2023-02-24T04:27:53.870Z,94.66
2023-02-24T04:28:53.847Z,94.35
2023-02-24T04:29:53.827Z,94.87
2023-02-24T04:30:53.994Z,94.76
2023-02-24T04:31:54.052Z,94.98
2023-02-24T04:32:53.821Z,95.50
2023-02-24T04:33:53.781Z,94.98
2023-02-24T04:34:53.766Z,94.56
2023-02-24T04:35:53.817Z,94.66
2023-02-24T04:36:53.764Z,94.56
2023-02-24T04:37:53.741Z,94.76
2023-02-24T04:38:53.725Z,94.98
2023-02-24T04:39:53.726Z,94.87
2023-02-24T04:40:53.737Z,94.98
2023-02-24T04:41:53.704Z,94.35
2023-02-24T04:42:53.681Z,94.45
2023-02-24T04:43:53.696Z,94.66
2023-02-24T04:44:53.669Z,94.24
2023-02-24T04:45:53.650Z,94.24
2023-02-24T04:46:53.644Z,94.35
2023-02-24T04:47:53.640Z,94.56
2023-02-24T04:48:53.629Z,94.56
2023-02-24T04:49:53.609Z,94.45
2023-02-24T04:50:53.609Z,94.45
2023-02-24T04:51:53.624Z,94.56
2023-02-24T04:52:53.565Z,94.04
2023-02-24T04:53:53.577Z,94.56
2023-02-24T04:54:53.555Z,94.56
2023-02-24T04:55:53.542Z,94.56
2023-02-24T04:56:53.535Z,94.45
2023-02-24T04:57:53.532Z,93.93
2023-02-24T04:58:53.509Z,94.35
2023-02-24T04:59:53.520Z,94.20
2023-02-24T05:00:53.506Z,94.35
2023-02-24T05:01:53.479Z,94.56
2023-02-24T05:02:53.464Z,93.89
2023-02-24T05:03:53.534Z,93.99
2023-02-24T05:04:53.448Z,94.10
2023-02-24T05:05:53.430Z,94.31
2023-02-24T05:06:53.415Z,94.10
2023-02-24T05:07:53.418Z,94.20
2023-02-24T05:08:53.419Z,94.20
2023-02-24T05:09:53.385Z,94.20
2023-02-24T05:10:53.374Z,93.68
2023-02-24T05:11:53.384Z,93.37
2023-02-24T05:12:53.352Z,93.37
2023-02-24T05:13:53.360Z,93.37
2023-02-24T05:14:53.360Z,93.48
2023-02-24T05:15:53.403Z,93.79
2023-02-24T05:16:53.322Z,93.58
2023-02-24T05:17:53.331Z,93.52
2023-02-24T05:18:53.286Z,93.48
2023-02-24T05:19:53.297Z,93.83
2023-02-24T05:20:53.261Z,93.58
2023-02-24T05:21:53.287Z,93.37
2023-02-24T05:22:53.249Z,93.68
2023-02-24T05:23:53.237Z,93.20
2023-02-24T05:24:53.232Z,93.27
2023-02-24T05:25:53.230Z,93.20
2023-02-24T05:26:53.209Z,93.16
2023-02-24T05:27:53.191Z,93.16
2023-02-24T05:28:53.180Z,93.16
2023-02-24T05:29:55.180Z,93.37
2023-02-24T05:30:53.280Z,93.37
2023-02-24T05:31:53.291Z,92.74
2023-02-24T05:32:53.141Z,92.12
2023-02-24T05:33:53.121Z,92.33
2023-02-24T05:34:53.122Z,92.33
2023-02-24T05:35:53.113Z,92.49
2023-02-24T05:36:53.088Z,92.29
2023-02-24T05:37:53.071Z,92.18
2023-02-24T05:38:55.537Z,91.77
2023-02-24T05:39:53.335Z,91.97
2023-02-24T05:40:53.064Z,91.97
2023-02-24T05:41:53.026Z,92.12
2023-02-24T05:42:53.017Z,91.77
2023-02-24T05:43:53.045Z,91.77
2023-02-24T05:44:53.022Z,91.77
2023-02-24T05:45:53.016Z,92.39
2023-02-24T05:46:53.157Z,91.46
2023-02-24T05:47:52.981Z,91.56
2023-02-24T05:48:52.950Z,91.97
2023-02-24T05:49:52.934Z,91.46
2023-02-24T05:50:52.937Z,91.35
2023-02-24T05:51:52.916Z,90.93
2023-02-24T05:52:52.910Z,90.93
2023-02-24T05:53:52.891Z,90.72
2023-02-24T05:54:52.890Z,91.14
2023-02-24T05:55:52.912Z,90.97
2023-02-24T05:56:52.863Z,90.83
2023-02-24T05:57:52.845Z,90.83
2023-02-24T05:58:54.740Z,90.83
2023-02-24T05:59:52.829Z,90.93
2023-02-24T06:00:52.853Z,90.72
2023-02-24T06:01:52.852Z,90.83
2023-02-24T06:02:52.849Z,90.93
2023-02-24T06:03:52.810Z,91.14
2023-02-24T06:04:52.771Z,90.83
2023-02-24T06:05:52.754Z,90.97
2023-02-24T06:06:52.798Z,90.62
2023-02-24T06:07:52.735Z,90.62
2023-02-24T06:08:52.728Z,90.93
2023-02-24T06:09:52.736Z,90.72
2023-02-24T06:10:52.744Z,91.04
2023-02-24T06:11:52.775Z,91.04
2023-02-24T06:12:55.073Z,91.14
2023-02-24T06:13:52.686Z,91.14
2023-02-24T06:14:52.662Z,90.93
2023-02-24T06:15:52.647Z,90.83
2023-02-24T06:16:52.646Z,90.83
2023-02-24T06:17:52.626Z,90.83
2023-02-24T06:18:52.614Z,90.69
2023-02-24T06:19:52.625Z,90.83
2023-02-24T06:20:52.595Z,90.62
2023-02-24T06:21:52.588Z,90.41
2023-02-24T06:22:52.582Z,91.25
2023-02-24T06:23:52.575Z,90.41
2023-02-24T06:24:52.551Z,90.62
2023-02-24T06:25:52.535Z,91.14
2023-02-24T06:26:52.530Z,90.62
2023-02-24T06:27:52.519Z,90.89
2023-02-24T06:28:52.519Z,90.83
2023-02-24T06:29:52.527Z,90.58
2023-02-24T06:30:52.584Z,90.26
2023-02-24T06:31:52.626Z,90.58
2023-02-24T06:32:52.534Z,90.20
2023-02-24T06:33:52.462Z,90.93
2023-02-24T06:34:52.487Z,91.10
2023-02-24T06:35:52.447Z,90.62
2023-02-24T06:36:52.417Z,90.31
2023-02-24T06:37:52.449Z,90.41
2023-02-24T06:38:52.422Z,90.52
2023-02-24T06:39:52.388Z,90.72
2023-02-24T06:40:52.400Z,90.79
2023-02-24T06:41:52.364Z,90.79
2023-02-24T06:42:52.356Z,90.58
2023-02-24T06:43:52.367Z,90.58
2023-02-24T06:44:52.351Z,90.52
2023-02-24T06:45:52.399Z,91.14
2023-02-24T06:46:52.307Z,91.14
2023-02-24T06:47:52.310Z,90.31
2023-02-24T06:48:52.282Z,91.20
2023-02-24T06:49:52.274Z,91.10
2023-02-24T06:50:52.310Z,90.58
2023-02-24T06:51:52.276Z,90.26
2023-02-24T06:52:52.241Z,90.26
2023-02-24T06:53:52.268Z,90.37
2023-02-24T06:54:52.225Z,91.31
2023-02-24T06:55:52.225Z,91.04
2023-02-24T06:56:52.206Z,91.00
2023-02-24T06:57:52.181Z,90.93
2023-02-24T06:58:52.223Z,90.79
2023-02-24T06:59:52.184Z,91.00
2023-02-24T07:00:52.223Z,90.89
2023-02-24T07:01:52.163Z,91.00
2023-02-24T07:02:52.135Z,91.00
2023-02-24T07:03:52.223Z,91.00
2023-02-24T07:04:52.121Z,90.62
2023-02-24T07:05:52.111Z,90.89
2023-02-24T07:06:52.119Z,90.83
2023-02-24T07:07:52.091Z,91.00
2023-02-24T07:08:52.081Z,91.00
2023-02-24T07:09:52.046Z,91.20
2023-02-24T07:10:52.044Z,90.26
2023-02-24T07:11:52.041Z,90.93
2023-02-24T07:12:52.049Z,91.00
2023-02-24T07:13:52.009Z,90.47
2023-02-24T07:14:51.999Z,90.52
2023-02-24T07:15:51.991Z,90.47
2023-02-24T07:16:52.025Z,91.04
2023-02-24T07:17:51.984Z,90.89
2023-02-24T07:18:51.997Z,90.58
2023-02-24T07:19:51.941Z,90.58
2023-02-24T07:20:51.933Z,90.26
2023-02-24T07:21:51.917Z,90.69
2023-02-24T07:22:51.912Z,90.47
2023-02-24T07:23:51.952Z,90.47
2023-02-24T07:24:51.901Z,90.69
2023-02-24T07:25:51.878Z,90.79
2023-02-24T07:26:51.939Z,90.47
2023-02-24T07:27:51.852Z,90.16
2023-02-24T07:28:51.848Z,90.23
2023-02-24T07:29:53.292Z,90.12
2023-02-24T07:30:51.949Z,90.12
2023-02-24T07:31:52.035Z,89.85
2023-02-24T07:32:51.851Z,90.02
2023-02-24T07:33:51.788Z,90.02
2023-02-24T07:34:51.777Z,90.02
2023-02-24T07:35:51.759Z,90.02
2023-02-24T07:36:51.777Z,89.92
2023-02-24T07:37:51.780Z,89.92
2023-02-24T07:38:51.746Z,90.02
2023-02-24T07:39:51.769Z,89.92
2023-02-24T07:40:51.709Z,89.70
2023-02-24T07:41:51.728Z,89.70
2023-02-24T07:42:51.717Z,89.92
2023-02-24T07:43:51.715Z,89.92
2023-02-24T07:44:51.745Z,89.92
2023-02-24T07:45:51.736Z,88.84
2023-02-24T07:46:51.663Z,89.18
2023-02-24T07:47:51.662Z,89.04
2023-02-24T07:48:51.615Z,88.84
2023-02-24T07:49:51.603Z,88.84
2023-02-24T07:50:51.621Z,88.73
2023-02-24T07:51:51.580Z,89.98
2023-02-24T07:52:51.601Z,89.77
2023-02-24T07:53:52.354Z,88.84
2023-02-24T07:54:51.564Z,89.04
2023-02-24T07:55:51.570Z,89.25
2023-02-24T07:56:51.524Z,89.25
2023-02-24T07:57:51.555Z,89.15
2023-02-24T07:58:51.530Z,89.04
2023-02-24T07:59:51.514Z,88.73
2023-02-24T08:00:51.482Z,89.46
2023-02-24T08:01:51.482Z,89.04
2023-02-24T08:02:51.606Z,89.25
2023-02-24T08:03:51.459Z,89.25
2023-02-24T08:04:51.648Z,89.04
2023-02-24T08:05:51.479Z,89.77
2023-02-24T08:06:51.413Z,89.04
2023-02-24T08:07:51.421Z,89.46
2023-02-24T08:08:51.425Z,89.04
2023-02-24T08:09:51.390Z,88.84
2023-02-24T08:10:51.374Z,89.67
2023-02-24T08:11:51.387Z,90.25
2023-02-24T08:12:51.376Z,89.67
2023-02-24T08:13:51.331Z,90.19
2023-02-24T08:14:51.616Z,89.77
2023-02-24T08:15:51.335Z,89.83
2023-02-24T08:16:51.307Z,90.56
2023-02-24T08:17:51.328Z,90.08
2023-02-24T08:18:51.283Z,90.39
2023-02-24T08:19:51.274Z,90.19
2023-02-24T08:20:51.271Z,90.81
2023-02-24T08:21:51.245Z,90.19
2023-02-24T08:22:51.242Z,90.08
2023-02-24T08:23:51.224Z,90.50
2023-02-24T08:24:51.222Z,90.45
2023-02-24T08:25:51.209Z,90.77
2023-02-24T08:26:51.200Z,90.60
2023-02-24T08:28:05.166Z,90.77
2023-02-24T08:28:52.173Z,90.87
2023-02-24T08:29:51.160Z,90.19
2023-02-24T08:30:51.309Z,90.19
2023-02-24T08:31:51.266Z,90.77
2023-02-24T08:32:51.175Z,90.77
2023-02-24T08:33:51.137Z,91.08
2023-02-24T08:34:51.107Z,90.56
2023-02-24T08:35:51.108Z,90.25
2023-02-24T08:36:51.084Z,90.97
2023-02-24T08:37:51.108Z,90.97
2023-02-24T08:38:51.061Z,91.28
2023-02-24T08:39:51.051Z,91.80
2023-02-24T08:40:51.047Z,91.39
2023-02-24T08:41:51.025Z,91.49
2023-02-24T08:42:51.014Z,91.91
2023-02-24T08:43:51.024Z,91.39
2023-02-24T08:44:51.000Z,91.85
2023-02-24T08:45:50.996Z,91.60
2023-02-24T08:46:51.072Z,91.91
2023-02-24T08:47:50.957Z,91.60
2023-02-24T08:48:50.955Z,92.01
2023-02-24T08:49:50.968Z,92.11
2023-02-24T08:50:50.928Z,92.22
2023-02-24T08:51:50.915Z,91.80
2023-02-24T08:52:50.927Z,91.91
2023-02-24T08:53:50.900Z,92.32
2023-02-24T08:54:50.907Z,92.84
2023-02-24T08:55:50.897Z,93.26
2023-02-24T08:56:50.894Z,93.41
2023-02-24T08:57:53.418Z,92.94
2023-02-24T08:58:50.845Z,92.99
2023-02-24T08:59:50.861Z,93.99
2023-02-24T09:00:50.871Z,93.99
2023-02-24T09:02:02.736Z,94.24
2023-02-24T09:02:51.808Z,94.03
2023-02-24T09:03:50.785Z,94.13
2023-02-24T09:04:50.779Z,95.17
2023-02-24T09:05:58.352Z,95.23
2023-02-24T09:06:53.780Z,95.03
2023-02-24T09:07:50.752Z,94.61
2023-02-24T09:08:50.767Z,95.28
2023-02-24T09:09:50.740Z,95.59
2023-02-24T09:10:50.722Z,95.28
2023-02-24T09:11:50.715Z,95.59
2023-02-24T09:12:50.702Z,96.21
2023-02-24T09:13:50.698Z,96.52
2023-02-24T09:14:50.729Z,96.31
2023-02-24T09:15:50.691Z,96.94
2023-02-24T09:16:50.648Z,96.83
2023-02-24T09:17:50.645Z,96.62
2023-02-24T09:18:50.653Z,96.83
2023-02-24T09:19:50.607Z,97.35
2023-02-24T09:20:50.609Z,97.14
2023-02-24T09:21:50.590Z,96.73
2023-02-24T09:22:50.583Z,97.50
2023-02-24T09:23:50.589Z,97.77
2023-02-24T09:24:50.558Z,97.45
2023-02-24T09:25:51.312Z,97.35
2023-02-24T09:26:50.531Z,97.40
2023-02-24T09:27:50.523Z,97.71
2023-02-24T09:28:50.560Z,98.19
2023-02-24T09:29:50.517Z,98.02
2023-02-24T09:30:50.516Z,98.13
2023-02-24T09:31:50.775Z,98.75
2023-02-24T09:32:50.705Z,98.96
2023-02-24T09:33:50.491Z,98.44
2023-02-24T09:34:50.445Z,98.54
2023-02-24T09:35:50.450Z,98.65
2023-02-24T09:36:50.435Z,99.06
2023-02-24T09:37:50.410Z,98.23
2023-02-24T09:38:50.400Z,98.85
2023-02-24T09:39:50.405Z,98.85
2023-02-24T09:40:50.377Z,98.65
2023-02-24T09:41:50.363Z,98.85
2023-02-24T09:42:50.363Z,99.06
2023-02-24T09:43:50.338Z,99.16
2023-02-24T09:44:50.327Z,99.48
2023-02-24T09:45:50.478Z,98.85
2023-02-24T09:46:50.362Z,99.48
2023-02-24T09:47:50.315Z,99.27
2023-02-24T09:48:50.291Z,98.85
2023-02-24T09:49:50.312Z,98.85
2023-02-24T09:51:02.586Z,98.85
2023-02-24T09:51:51.247Z,99.27
2023-02-24T09:52:52.177Z,99.37
2023-02-24T09:53:50.227Z,98.85
2023-02-24T09:54:50.212Z,99.06
2023-02-24T09:55:50.213Z,99.79
2023-02-24T09:56:50.200Z,99.79
2023-02-24T09:57:50.182Z,99.99
2023-02-24T09:58:50.165Z,99.99
2023-02-24T09:59:50.164Z,99.68
2023-02-24T10:00:50.221Z,99.79
2023-02-24T10:01:50.147Z,99.90
2023-02-24T10:02:50.124Z,99.90
2023-02-24T10:03:50.139Z,99.90
2023-02-24T10:04:50.102Z,99.99
2023-02-24T10:05:50.093Z,99.99
2023-02-24T10:06:50.114Z,99.99
2023-02-24T10:07:50.071Z,99.99
2023-02-24T10:08:50.064Z,99.99
2023-02-24T10:09:50.055Z,99.99
2023-02-24T10:10:50.038Z,99.99
2023-02-24T10:11:50.040Z,99.99
2023-02-24T10:12:50.014Z,99.99
2023-02-24T10:13:50.071Z,99.99
2023-02-24T10:14:51.443Z,99.99
2023-02-24T10:15:50.155Z,99.99
2023-02-24T10:16:51.007Z,99.99
2023-02-24T10:17:49.974Z,99.99
2023-02-24T10:18:49.947Z,99.99
2023-02-24T10:19:49.959Z,99.99
2023-02-24T10:20:49.966Z,99.99
2023-02-24T10:21:49.992Z,99.99
2023-02-24T10:22:49.929Z,99.99
2023-02-24T10:23:54.871Z,99.99
2023-02-24T10:24:49.904Z,99.99
2023-02-24T10:25:49.887Z,99.99
2023-02-24T10:27:00.116Z,99.99
2023-02-24T10:27:50.864Z,99.99
2023-02-24T10:28:49.837Z,99.99
2023-02-24T10:29:49.829Z,99.99
2023-02-24T10:30:49.950Z,99.99
2023-02-24T10:31:50.014Z,99.99
2023-02-24T10:32:49.869Z,99.99
2023-02-24T10:33:49.790Z,99.99
2023-02-24T10:34:49.796Z,99.99
2023-02-24T10:35:49.798Z,99.99
2023-02-24T10:36:49.750Z,99.99
2023-02-24T10:37:49.754Z,99.99
2023-02-24T10:38:49.733Z,99.99
2023-02-24T10:39:51.896Z,99.99
2023-02-24T10:40:49.700Z,99.99
2023-02-24T10:41:49.779Z,99.99
2023-02-24T10:42:49.710Z,99.99
2023-02-24T10:43:49.735Z,99.99
2023-02-24T10:45:01.199Z,99.99
2023-02-24T10:45:50.701Z,99.99
2023-02-24T10:46:49.775Z,99.99
2023-02-24T10:47:49.651Z,99.99
2023-02-24T10:48:49.639Z,99.99
2023-02-24T10:49:49.629Z,99.99
2023-02-24T10:50:55.969Z,99.99
2023-02-24T10:51:50.603Z,99.99
2023-02-24T10:52:49.574Z,99.99
2023-02-24T10:53:49.596Z,99.99
2023-02-24T10:54:49.575Z,99.99
2023-02-24T10:55:49.540Z,99.99
2023-02-24T10:56:49.526Z,99.99
2023-02-24T10:57:58.500Z,99.99
2023-02-24T10:58:50.537Z,99.99
2023-02-24T10:59:49.558Z,99.99
2023-02-24T11:00:49.483Z,99.99
2023-02-24T11:01:49.643Z,99.99
2023-02-24T11:02:49.497Z,99.99
2023-02-24T11:03:49.454Z,99.99
2023-02-24T11:04:49.472Z,99.99
2023-02-24T11:05:49.426Z,99.99
2023-02-24T11:06:49.419Z,99.99
2023-02-24T11:07:49.423Z,99.99
2023-02-24T11:08:49.389Z,99.99
2023-02-24T11:09:49.382Z,99.99
2023-02-24T11:10:49.376Z,99.99
2023-02-24T11:11:49.375Z,99.99
2023-02-24T11:12:53.567Z,99.99
2023-02-24T11:13:49.345Z,99.99
2023-02-24T11:14:49.327Z,99.99
2023-02-24T11:15:49.358Z,99.99
2023-02-24T11:16:49.300Z,99.99
2023-02-24T11:17:49.359Z,99.99
2023-02-24T11:18:49.273Z,99.99
2023-02-24T11:19:49.314Z,99.99
2023-02-24T11:20:50.114Z,99.99
2023-02-24T11:21:49.250Z,99.99
2023-02-24T11:22:49.250Z,99.99
2023-02-24T11:23:49.243Z,99.99
2023-02-24T11:24:49.210Z,99.99
2023-02-24T11:25:49.205Z,99.99
2023-02-24T11:26:49.189Z,99.99
2023-02-24T11:27:49.188Z,99.99
2023-02-24T11:28:49.178Z,99.99
2023-02-24T11:29:49.180Z,99.99
2023-02-24T11:30:49.286Z,99.99
2023-02-24T11:31:49.320Z,99.99
2023-02-24T11:32:49.183Z,99.99
2023-02-24T11:33:49.114Z,99.99
2023-02-24T11:34:49.103Z,99.99
2023-02-24T11:35:49.108Z,99.99
2023-02-24T11:36:49.087Z,99.99
2023-02-24T11:37:49.067Z,99.99
2023-02-24T11:38:49.218Z,99.99
2023-02-24T11:39:49.082Z,99.99
2023-02-24T11:40:49.051Z,99.99
2023-02-24T11:41:49.045Z,99.99
2023-02-24T11:42:49.024Z,99.99
2023-02-24T11:43:49.016Z,99.99
2023-02-24T11:44:48.992Z,99.99
2023-02-24T11:45:48.992Z,99.99
2023-02-24T11:46:48.983Z,99.99
2023-02-24T11:47:48.974Z,99.99
2023-02-24T11:48:49.001Z,99.99
2023-02-24T11:49:48.950Z,99.99
2023-02-24T11:50:48.935Z,99.99
2023-02-24T11:51:48.939Z,99.99
2023-02-24T11:52:48.939Z,99.99
2023-02-24T11:53:48.900Z,99.99
2023-02-24T11:54:48.905Z,99.99
2023-02-24T11:55:48.892Z,99.99
2023-02-24T11:56:48.877Z,99.99
2023-02-24T11:57:48.856Z,99.99
2023-02-24T11:58:48.882Z,99.99
2023-02-24T11:59:48.827Z,99.99
2023-02-24T12:00:48.811Z,99.99
2023-02-24T12:01:48.816Z,99.99
2023-02-24T12:02:48.959Z,99.99
2023-02-24T12:03:48.799Z,99.99
2023-02-24T12:04:48.769Z,99.99
2023-02-24T12:05:48.851Z,99.99
2023-02-24T12:06:48.746Z,99.99
2023-02-24T12:07:48.759Z,99.99
2023-02-24T12:08:48.738Z,99.99
2023-02-24T12:09:48.734Z,99.99
2023-02-24T12:10:48.711Z,99.99
2023-02-24T12:11:48.723Z,99.99
2023-02-24T12:12:48.683Z,99.99
2023-02-24T12:13:48.679Z,99.99
2023-02-24T12:14:48.669Z,99.99
2023-02-24T12:15:48.767Z,99.99
2023-02-24T12:16:48.664Z,99.99
2023-02-24T12:17:48.649Z,99.99
2023-02-24T12:18:48.630Z,99.99
2023-02-24T12:19:48.629Z,99.99
2023-02-24T12:20:48.593Z,99.99
2023-02-24T12:21:48.583Z,99.99
2023-02-24T12:22:48.596Z,99.99
2023-02-24T12:23:48.569Z,99.99
2023-02-24T12:24:48.546Z,99.99
2023-02-24T12:25:48.538Z,99.99
2023-02-24T12:26:48.528Z,99.99
2023-02-24T12:27:48.561Z,99.99
2023-02-24T12:28:48.519Z,99.99
2023-02-24T12:29:48.512Z,99.99
2023-02-24T12:30:48.626Z,99.99
2023-02-24T12:31:48.634Z,99.99
2023-02-24T12:32:48.613Z,99.99
2023-02-24T12:33:48.450Z,99.99
2023-02-24T12:34:48.620Z,99.99
2023-02-24T12:35:48.430Z,99.99
2023-02-24T12:36:48.420Z,99.99
2023-02-24T12:37:48.431Z,99.99
2023-02-24T12:38:48.390Z,99.99
2023-02-24T12:39:48.383Z,99.99
2023-02-24T12:40:48.378Z,99.99
2023-02-24T12:41:48.381Z,99.99
2023-02-24T12:42:48.358Z,99.99
2023-02-24T12:43:48.358Z,99.99
2023-02-24T12:44:48.321Z,99.99
2023-02-24T12:45:48.386Z,99.99
2023-02-24T12:46:48.297Z,99.99
2023-02-24T12:47:48.299Z,99.99
2023-02-24T12:48:48.302Z,99.99
2023-02-24T12:49:48.270Z,99.99
2023-02-24T12:50:48.271Z,99.99
2023-02-24T12:51:48.249Z,99.99
2023-02-24T12:52:48.232Z,99.99